Kelliher, Canada
Current Conditions -  °F | °C
As of 8:00 AM on Thursday 23 Oct 2014 (Local Time) from CYQV Reporting Station
Broken Clouds Broken Clouds  
Wind Chill: 33°   Ceiling: 1100
Heat Index: 39°   Visibility: 9mi
Dew Point: 37°   Wind: 9mph
Humidity: 93%   Direction: 230°SW
Pressure: 29.75"   Gusts: NA
Location:  51.27°N, 103.73°W
Report Text: CYQV 231400Z AUTO 23008KT 9SM BKN011 04/03 A2975 RMK SLP090
Loading
Personal Weather Stations






























Interactive Weather Map
Tropical Storm Tracking
New forecast layout! Learn more

10-Day Weather Forecast

Advertisements
Track Severe Weather on mobile